sensor_id;sensor_type;location;lat;lon;timestamp;pressure;altitude;pressure_sealevel;temperature;humidity
38558;BME280;24333;42.626;23.308;2022-11-10T00:05:14;92861.25;;;5.58;100.00
38558;BME280;24333;42.626;23.308;2022-11-10T00:07:40;92876.53;;;5.63;100.00
38558;BME280;24333;42.626;23.308;2022-11-10T00:10:07;92873.81;;;5.63;100.00
38558;BME280;24333;42.626;23.308;2022-11-10T00:12:33;92865.63;;;5.50;100.00
38558;BME280;24333;42.626;23.308;2022-11-10T00:14:59;92867.72;;;5.45;100.00
38558;BME280;24333;42.626;23.308;2022-11-10T00:20:19;92872.31;;;5.44;100.00
38558;BME280;24333;42.626;23.308;2022-11-10T00:22:45;92878.16;;;5.55;100.00
38558;BME280;24333;42.626;23.308;2022-11-10T00:25:11;92862.47;;;5.48;100.00
38558;BME280;24333;42.626;23.308;2022-11-10T00:31:25;92876.28;;;5.47;100.00
38558;BME280;24333;42.626;23.308;2022-11-10T00:33:52;92862.16;;;5.41;100.00
38558;BME280;24333;42.626;23.308;2022-11-10T00:36:18;92853.84;;;5.46;100.00
38558;BME280;24333;42.626;23.308;2022-11-10T00:38:43;92846.06;;;5.45;100.00
38558;BME280;24333;42.626;23.308;2022-11-10T00:41:09;92853.22;;;5.49;100.00
38558;BME280;24333;42.626;23.308;2022-11-10T00:43:34;92850.03;;;5.47;100.00
38558;BME280;24333;42.626;23.308;2022-11-10T00:46:00;92852.09;;;5.50;100.00
38558;BME280;24333;42.626;23.308;2022-11-10T00:48:25;92850.97;;;5.52;100.00
38558;BME280;24333;42.626;23.308;2022-11-10T00:50:51;92838.38;;;5.56;100.00
38558;BME280;24333;42.626;23.308;2022-11-10T00:53:16;92843.91;;;5.59;100.00
38558;BME280;24333;42.626;23.308;2022-11-10T00:55:42;92846.91;;;5.67;100.00
38558;BME280;24333;42.626;23.308;2022-11-10T00:58:08;92845.44;;;5.69;100.00
38558;BME280;24333;42.626;23.308;2022-11-10T01:00:35;92838.66;;;5.63;100.00
38558;BME280;24333;42.626;23.308;2022-11-10T01:03:04;92840.69;;;5.66;100.00
38558;BME280;24333;42.626;23.308;2022-11-10T01:05:48;92850.84;;;5.69;100.00
38558;BME280;24333;42.626;23.308;2022-11-10T01:08:13;92845.31;;;5.65;100.00
38558;BME280;24333;42.626;23.308;2022-11-10T01:10:39;92841.34;;;5.63;100.00
38558;BME280;24333;42.626;23.308;2022-11-10T01:13:05;92850.13;;;5.60;100.00
38558;BME280;24333;42.626;23.308;2022-11-10T01:15:30;92842.41;;;5.49;100.00
38558;BME280;24333;42.626;23.308;2022-11-10T01:17:56;92847.66;;;5.46;100.00
38558;BME280;24333;42.626;23.308;2022-11-10T01:33:17;92835.88;;;5.20;100.00
38558;BME280;24333;42.626;23.308;2022-11-10T01:41:47;92825.78;;;5.00;100.00
38558;BME280;24333;42.626;23.308;2022-11-10T01:44:18;92837.69;;;4.99;100.00
38558;BME280;24333;42.626;23.308;2022-11-10T01:46:44;92839.63;;;4.98;100.00
38558;BME280;24333;42.626;23.308;2022-11-10T01:49:18;92832.75;;;5.01;100.00
38558;BME280;24333;42.626;23.308;2022-11-10T01:52:09;92820.13;;;4.84;100.00
38558;BME280;24333;42.626;23.308;2022-11-10T01:57:12;92821.38;;;4.86;100.00
38558;BME280;24333;42.626;23.308;2022-11-10T01:59:43;92828.72;;;4.77;100.00
38558;BME280;24333;42.626;23.308;2022-11-10T02:02:22;92823.81;;;4.79;100.00
38558;BME280;24333;42.626;23.308;2022-11-10T02:04:50;92817.75;;;4.82;100.00
38558;BME280;24333;42.626;23.308;2022-11-10T02:07:17;92814.25;;;4.82;100.00
38558;BME280;24333;42.626;23.308;2022-11-10T02:10:35;92835.00;;;4.99;100.00
38558;BME280;24333;42.626;23.308;2022-11-10T02:18:23;92819.81;;;4.85;100.00
38558;BME280;24333;42.626;23.308;2022-11-10T02:20:48;92829.31;;;4.91;100.00
38558;BME280;24333;42.626;23.308;2022-11-10T02:26:03;92826.78;;;4.86;100.00
38558;BME280;24333;42.626;23.308;2022-11-10T02:28:33;92846.63;;;4.99;100.00
38558;BME280;24333;42.626;23.308;2022-11-10T02:34:44;92841.41;;;4.85;100.00
38558;BME280;24333;42.626;23.308;2022-11-10T02:50:07;92850.19;;;4.73;100.00
38558;BME280;24333;42.626;23.308;2022-11-10T02:52:32;92858.78;;;4.75;100.00
38558;BME280;24333;42.626;23.308;2022-11-10T02:54:58;92854.47;;;4.74;100.00
38558;BME280;24333;42.626;23.308;2022-11-10T02:57:23;92835.94;;;4.64;100.00
38558;BME280;24333;42.626;23.308;2022-11-10T02:59:48;92862.59;;;4.74;100.00
38558;BME280;24333;42.626;23.308;2022-11-10T03:02:14;92851.03;;;4.65;100.00
38558;BME280;24333;42.626;23.308;2022-11-10T03:04:40;92845.28;;;4.58;100.00
38558;BME280;24333;42.626;23.308;2022-11-10T03:07:05;92846.41;;;4.57;100.00
38558;BME280;24333;42.626;23.308;2022-11-10T03:09:31;92846.41;;;4.57;100.00
38558;BME280;24333;42.626;23.308;2022-11-10T03:11:56;92841.53;;;4.50;100.00
38558;BME280;24333;42.626;23.308;2022-11-10T03:16:57;92851.81;;;4.57;100.00
38558;BME280;24333;42.626;23.308;2022-11-10T03:19:22;92854.38;;;4.62;100.00
38558;BME280;24333;42.626;23.308;2022-11-10T03:21:47;92860.88;;;4.61;100.00
38558;BME280;24333;42.626;23.308;2022-11-10T03:24:13;92858.19;;;4.52;100.00
38558;BME280;24333;42.626;23.308;2022-11-10T03:26:38;92858.66;;;4.54;100.00
38558;BME280;24333;42.626;23.308;2022-11-10T03:35:48;92853.25;;;4.54;100.00
38558;BME280;24333;42.626;23.308;2022-11-10T03:38:14;92867.41;;;4.60;100.00
38558;BME280;24333;42.626;23.308;2022-11-10T03:40:40;92851.38;;;4.46;100.00
38558;BME280;24333;42.626;23.308;2022-11-10T03:43:07;92858.84;;;4.49;100.00
38558;BME280;24333;42.626;23.308;2022-11-10T03:45:32;92854.88;;;4.38;100.00
38558;BME280;24333;42.626;23.308;2022-11-10T03:47:58;92876.28;;;4.52;100.00
38558;BME280;24333;42.626;23.308;2022-11-10T03:50:25;92846.28;;;4.36;100.00
38558;BME280;24333;42.626;23.308;2022-11-10T03:52:50;92879.00;;;4.52;100.00
38558;BME280;24333;42.626;23.308;2022-11-10T03:55:20;92855.03;;;4.32;100.00
38558;BME280;24333;42.626;23.308;2022-11-10T03:58:17;92860.13;;;4.34;100.00
38558;BME280;24333;42.626;23.308;2022-11-10T04:01:13;92851.09;;;4.30;100.00
38558;BME280;24333;42.626;23.308;2022-11-10T04:03:38;92880.44;;;4.40;100.00
38558;BME280;24333;42.626;23.308;2022-11-10T04:06:04;92883.63;;;4.42;100.00
38558;BME280;24333;42.626;23.308;2022-11-10T04:11:24;92862.84;;;4.25;100.00
38558;BME280;24333;42.626;23.308;2022-11-10T04:14:26;92886.03;;;4.44;100.00
38558;BME280;24333;42.626;23.308;2022-11-10T04:17:12;92862.19;;;4.28;100.00
38558;BME280;24333;42.626;23.308;2022-11-10T04:19:38;92885.69;;;4.37;100.00
38558;BME280;24333;42.626;23.308;2022-11-10T04:22:03;92887.59;;;4.27;100.00
38558;BME280;24333;42.626;23.308;2022-11-10T04:24:29;92862.84;;;4.16;100.00
38558;BME280;24333;42.626;23.308;2022-11-10T04:26:55;92880.78;;;4.30;100.00
38558;BME280;24333;42.626;23.308;2022-11-10T04:29:22;92878.56;;;4.14;100.00
38558;BME280;24333;42.626;23.308;2022-11-10T04:31:48;92895.06;;;4.22;100.00
38558;BME280;24333;42.626;23.308;2022-11-10T04:34:14;92899.22;;;4.28;100.00
38558;BME280;24333;42.626;23.308;2022-11-10T04:36:41;92878.56;;;4.14;100.00
38558;BME280;24333;42.626;23.308;2022-11-10T04:39:09;92894.59;;;4.28;100.00
38558;BME280;24333;42.626;23.308;2022-11-10T04:41:35;92875.69;;;4.19;100.00
38558;BME280;24333;42.626;23.308;2022-11-10T04:44:02;92869.69;;;4.14;100.00
38558;BME280;24333;42.626;23.308;2022-11-10T04:46:37;92892.84;;;4.24;100.00
38558;BME280;24333;42.626;23.308;2022-11-10T04:49:05;92881.44;;;4.18;100.00
38558;BME280;24333;42.626;23.308;2022-11-10T04:51:34;92871.44;;;4.10;100.00
38558;BME280;24333;42.626;23.308;2022-11-10T04:54:04;92880.94;;;4.16;100.00
38558;BME280;24333;42.626;23.308;2022-11-10T04:56:30;92880.78;;;4.12;100.00
38558;BME280;24333;42.626;23.308;2022-11-10T04:58:58;92891.09;;;4.19;100.00
38558;BME280;24333;42.626;23.308;2022-11-10T05:01:52;92892.88;;;4.15;100.00
38558;BME280;24333;42.626;23.308;2022-11-10T05:04:37;92893.97;;;4.14;100.00
38558;BME280;24333;42.626;23.308;2022-11-10T05:07:03;92897.16;;;4.16;100.00
38558;BME280;24333;42.626;23.308;2022-11-10T05:09:29;92897.44;;;4.05;100.00
38558;BME280;24333;42.626;23.308;2022-11-10T05:11:55;92890.47;;;4.04;100.00
38558;BME280;24333;42.626;23.308;2022-11-10T05:21:03;92893.63;;;4.07;100.00
38558;BME280;24333;42.626;23.308;2022-11-10T05:23:29;92893.63;;;4.07;100.00
38558;BME280;24333;42.626;23.308;2022-11-10T05:28:29;92898.72;;;4.17;100.00
38558;BME280;24333;42.626;23.308;2022-11-10T05:30:55;92902.22;;;4.17;100.00
38558;BME280;24333;42.626;23.308;2022-11-10T05:33:20;92909.53;;;4.26;100.00
38558;BME280;24333;42.626;23.308;2022-11-10T05:35:48;92912.84;;;4.31;100.00
38558;BME280;24333;42.626;23.308;2022-11-10T05:38:14;92908.41;;;4.36;100.00
38558;BME280;24333;42.626;23.308;2022-11-10T05:40:39;92906.66;;;4.40;100.00
38558;BME280;24333;42.626;23.308;2022-11-10T05:43:05;92913.31;;;4.51;100.00
38558;BME280;24333;42.626;23.308;2022-11-10T05:45:30;92911.88;;;4.54;100.00
38558;BME280;24333;42.626;23.308;2022-11-10T05:48:07;92913.16;;;4.65;100.00
38558;BME280;24333;42.626;23.308;2022-11-10T05:50:50;92914.41;;;4.68;100.00
38558;BME280;24333;42.626;23.308;2022-11-10T05:53:17;92907.72;;;4.74;100.00
38558;BME280;24333;42.626;23.308;2022-11-10T05:55:42;92916.91;;;4.82;100.00
38558;BME280;24333;42.626;23.308;2022-11-10T05:58:08;92917.72;;;4.82;100.00
38558;BME280;24333;42.626;23.308;2022-11-10T06:00:33;92923.91;;;4.91;100.00
38558;BME280;24333;42.626;23.308;2022-11-10T06:34:07;92965.38;;;5.91;100.00
38558;BME280;24333;42.626;23.308;2022-11-10T06:36:33;92971.25;;;5.93;100.00
38558;BME280;24333;42.626;23.308;2022-11-10T06:38:58;92960.53;;;5.97;100.00
38558;BME280;24333;42.626;23.308;2022-11-10T06:41:24;92962.78;;;6.03;100.00
38558;BME280;24333;42.626;23.308;2022-11-10T06:43:49;92972.28;;;6.10;100.00
38558;BME280;24333;42.626;23.308;2022-11-10T06:46:14;92969.25;;;6.11;100.00
38558;BME280;24333;42.626;23.308;2022-11-10T06:48:58;92984.59;;;6.28;100.00
38558;BME280;24333;42.626;23.308;2022-11-10T06:51:43;92978.38;;;6.28;100.00
38558;BME280;24333;42.626;23.308;2022-11-10T06:54:08;92965.19;;;6.26;100.00
38558;BME280;24333;42.626;23.308;2022-11-10T06:56:34;92962.28;;;6.31;100.00
38558;BME280;24333;42.626;23.308;2022-11-10T06:58:59;92984.47;;;6.46;100.00
38558;BME280;24333;42.626;23.308;2022-11-10T07:01:25;92986.41;;;6.45;100.00
38558;BME280;24333;42.626;23.308;2022-11-10T07:03:53;92965.25;;;6.39;100.00
38558;BME280;24333;42.626;23.308;2022-11-10T07:06:20;92973.63;;;6.46;100.00
38558;BME280;24333;42.626;23.308;2022-11-10T07:19:00;92981.97;;;6.62;100.00
38558;BME280;24333;42.626;23.308;2022-11-10T07:24:44;92983.88;;;6.61;100.00
38558;BME280;24333;42.626;23.308;2022-11-10T07:27:13;92985.94;;;6.64;100.00
38558;BME280;24333;42.626;23.308;2022-11-10T07:29:38;92983.34;;;6.68;100.00
38558;BME280;24333;42.626;23.308;2022-11-10T07:32:04;92999.34;;;6.82;100.00
38558;BME280;24333;42.626;23.308;2022-11-10T07:34:29;92989.50;;;6.77;100.00
38558;BME280;24333;42.626;23.308;2022-11-10T07:36:54;92999.97;;;7.00;100.00
38558;BME280;24333;42.626;23.308;2022-11-10T07:39:20;92993.56;;;7.05;100.00
38558;BME280;24333;42.626;23.308;2022-11-10T07:41:46;93004.22;;;7.22;100.00
38558;BME280;24333;42.626;23.308;2022-11-10T07:44:28;92985.69;;;7.24;100.00
38558;BME280;24333;42.626;23.308;2022-11-10T07:46:53;93001.94;;;7.46;100.00
38558;BME280;24333;42.626;23.308;2022-11-10T07:49:40;93001.34;;;7.40;100.00
38558;BME280;24333;42.626;23.308;2022-11-10T07:52:27;92989.59;;;7.36;100.00
38558;BME280;24333;42.626;23.308;2022-11-10T07:54:53;93001.59;;;7.47;100.00
38558;BME280;24333;42.626;23.308;2022-11-10T07:57:18;93001.97;;;7.58;100.00
38558;BME280;24333;42.626;23.308;2022-11-10T07:59:44;93001.16;;;7.58;100.00
38558;BME280;24333;42.626;23.308;2022-11-10T08:02:10;92979.66;;;7.52;100.00
38558;BME280;24333;42.626;23.308;2022-11-10T08:04:36;92992.47;;;7.64;100.00
38558;BME280;24333;42.626;23.308;2022-11-10T08:07:01;93003.44;;;7.68;100.00
38558;BME280;24333;42.626;23.308;2022-11-10T08:09:27;92989.44;;;7.66;100.00
38558;BME280;24333;42.626;23.308;2022-11-10T08:11:52;92991.09;;;7.71;100.00
38558;BME280;24333;42.626;23.308;2022-11-10T08:14:18;93004.81;;;7.87;100.00
38558;BME280;24333;42.626;23.308;2022-11-10T08:16:43;92997.81;;;7.86;100.00
38558;BME280;24333;42.626;23.308;2022-11-10T08:19:09;92986.25;;;7.89;100.00
38558;BME280;24333;42.626;23.308;2022-11-10T08:57:39;93011.50;;;8.51;100.00
38558;BME280;24333;42.626;23.308;2022-11-10T09:00:05;93019.75;;;8.67;100.00
38558;BME280;24333;42.626;23.308;2022-11-10T09:02:31;93031.50;;;8.84;100.00
38558;BME280;24333;42.626;23.308;2022-11-10T09:04:56;93008.72;;;8.76;100.00
38558;BME280;24333;42.626;23.308;2022-11-10T09:07:22;93011.75;;;8.87;100.00
38558;BME280;24333;42.626;23.308;2022-11-10T09:36:11;93021.63;;;9.65;100.00
38558;BME280;24333;42.626;23.308;2022-11-10T09:57:11;93007.75;;;9.70;100.00
38558;BME280;24333;42.626;23.308;2022-11-10T09:59:59;93017.78;;;9.82;100.00
38558;BME280;24333;42.626;23.308;2022-11-10T10:02:44;93026.31;;;9.80;100.00
38558;BME280;24333;42.626;23.308;2022-11-10T10:08:10;92999.94;;;9.68;100.00
38558;BME280;24333;42.626;23.308;2022-11-10T10:19:59;92998.44;;;10.19;100.00
38558;BME280;24333;42.626;23.308;2022-11-10T11:11:42;92975.13;;;10.74;100.00
38558;BME280;24333;42.626;23.308;2022-11-10T11:14:33;92983.66;;;10.88;100.00
38558;BME280;24333;42.626;23.308;2022-11-10T11:17:01;92974.03;;;10.94;100.00
38558;BME280;24333;42.626;23.308;2022-11-10T11:19:31;92969.56;;;11.06;100.00
38558;BME280;24333;42.626;23.308;2022-11-10T11:22:32;92968.47;;;10.91;100.00
38558;BME280;24333;42.626;23.308;2022-11-10T11:32:05;92975.88;;;11.49;100.00
38558;BME280;24333;42.626;23.308;2022-11-10T11:37:46;92961.50;;;11.33;100.00
38558;BME280;24333;42.626;23.308;2022-11-10T11:40:31;92975.38;;;11.43;100.00
38558;BME280;24333;42.626;23.308;2022-11-10T11:52:23;92967.38;;;11.54;100.00
38558;BME280;24333;42.626;23.308;2022-11-10T12:06:44;92980.84;;;11.67;100.00
38558;BME280;24333;42.626;23.308;2022-11-10T12:12:01;92977.94;;;11.79;100.00
38558;BME280;24333;42.626;23.308;2022-11-10T12:28:17;92965.81;;;11.77;100.00
38558;BME280;24333;42.626;23.308;2022-11-10T12:34:43;92981.97;;;11.85;100.00
38558;BME280;24333;42.626;23.308;2022-11-10T12:37:29;92977.88;;;11.76;100.00
38558;BME280;24333;42.626;23.308;2022-11-10T12:42:37;92961.53;;;11.79;100.00
38558;BME280;24333;42.626;23.308;2022-11-10T12:45:10;92954.06;;;11.76;100.00
38558;BME280;24333;42.626;23.308;2022-11-10T12:47:43;92956.81;;;11.76;100.00
38558;BME280;24333;42.626;23.308;2022-11-10T13:08:30;92987.78;;;12.57;100.00
38558;BME280;24333;42.626;23.308;2022-11-10T13:11:03;92989.75;;;12.57;100.00
38558;BME280;24333;42.626;23.308;2022-11-10T13:13:39;93000.13;;;12.48;100.00
38558;BME280;24333;42.626;23.308;2022-11-10T13:16:07;92996.53;;;12.40;100.00
38558;BME280;24333;42.626;23.308;2022-11-10T13:20:59;93007.66;;;12.04;99.77
38558;BME280;24333;42.626;23.308;2022-11-10T13:38:18;93016.91;;;10.78;100.00
38558;BME280;24333;42.626;23.308;2022-11-10T13:43:52;93010.41;;;10.47;100.00
38558;BME280;24333;42.626;23.308;2022-11-10T13:46:19;93009.59;;;10.30;100.00
38558;BME280;24333;42.626;23.308;2022-11-10T13:57:36;93014.03;;;9.87;100.00
38558;BME280;24333;42.626;23.308;2022-11-10T14:03:06;93021.81;;;9.72;100.00
38558;BME280;24333;42.626;23.308;2022-11-10T14:06:06;93027.44;;;9.63;100.00
38558;BME280;24333;42.626;23.308;2022-11-10T14:08:37;93017.03;;;9.53;100.00
38558;BME280;24333;42.626;23.308;2022-11-10T14:11:13;93028.63;;;9.50;100.00
38558;BME280;24333;42.626;23.308;2022-11-10T14:13:44;93030.56;;;9.49;100.00
38558;BME280;24333;42.626;23.308;2022-11-10T14:16:22;93029.94;;;9.40;100.00
38558;BME280;24333;42.626;23.308;2022-11-10T14:18:53;93029.03;;;9.36;100.00
38558;BME280;24333;42.626;23.308;2022-11-10T14:21:24;93020.59;;;9.25;100.00
38558;BME280;24333;42.626;23.308;2022-11-10T14:23:57;93026.81;;;9.25;100.00
38558;BME280;24333;42.626;23.308;2022-11-10T14:26:41;93032.19;;;9.22;100.00
38558;BME280;24333;42.626;23.308;2022-11-10T14:31:51;93037.31;;;9.11;100.00
38558;BME280;24333;42.626;23.308;2022-11-10T14:34:23;93032.13;;;9.06;100.00
38558;BME280;24333;42.626;23.308;2022-11-10T14:37:05;93038.69;;;9.05;100.00
38558;BME280;24333;42.626;23.308;2022-11-10T14:39:32;93042.56;;;9.04;99.44
38558;BME280;24333;42.626;23.308;2022-11-10T14:42:01;93036.66;;;9.02;98.74
38558;BME280;24333;42.626;23.308;2022-11-10T14:44:29;93034.72;;;9.02;98.64
38558;BME280;24333;42.626;23.308;2022-11-10T14:46:55;93028.72;;;8.96;97.37
38558;BME280;24333;42.626;23.308;2022-11-10T14:49:25;93029.09;;;8.95;98.57
38558;BME280;24333;42.626;23.308;2022-11-10T14:51:55;93032.94;;;8.94;97.94
38558;BME280;24333;42.626;23.308;2022-11-10T14:54:26;93041.78;;;8.91;95.60
38558;BME280;24333;42.626;23.308;2022-11-10T14:56:53;93027.88;;;8.80;97.57
38558;BME280;24333;42.626;23.308;2022-11-10T14:59:19;93024.94;;;8.73;97.30
38558;BME280;24333;42.626;23.308;2022-11-10T15:02:13;93033.69;;;8.66;96.27
38558;BME280;24333;42.626;23.308;2022-11-10T15:04:40;93039.56;;;8.68;95.75
38558;BME280;24333;42.626;23.308;2022-11-10T15:07:08;93039.00;;;8.62;93.82
38558;BME280;24333;42.626;23.308;2022-11-10T15:09:33;93046.63;;;8.57;94.87
38558;BME280;24333;42.626;23.308;2022-11-10T15:17:08;93051.91;;;8.28;92.61
38558;BME280;24333;42.626;23.308;2022-11-10T15:19:51;93067.66;;;8.35;89.52
38558;BME280;24333;42.626;23.308;2022-11-10T15:27:30;93070.16;;;8.28;96.07
38558;BME280;24333;42.626;23.308;2022-11-10T15:30:00;93058.72;;;8.09;97.93
38558;BME280;24333;42.626;23.308;2022-11-10T15:32:42;93077.03;;;8.25;98.34
38558;BME280;24333;42.626;23.308;2022-11-10T15:41:22;93091.63;;;7.95;95.65
38558;BME280;24333;42.626;23.308;2022-11-10T15:43:49;93083.09;;;7.85;97.79
38558;BME280;24333;42.626;23.308;2022-11-10T15:46:20;93062.50;;;7.71;98.24
38558;BME280;24333;42.626;23.308;2022-11-10T15:48:50;93086.41;;;7.90;98.26
38558;BME280;24333;42.626;23.308;2022-11-10T15:51:18;93073.72;;;7.82;96.01
38558;BME280;24333;42.626;23.308;2022-11-10T15:53:48;93093.06;;;7.93;97.23
38558;BME280;24333;42.626;23.308;2022-11-10T15:56:20;93088.06;;;7.82;96.42
38558;BME280;24333;42.626;23.308;2022-11-10T15:58:51;93079.81;;;7.79;98.29
38558;BME280;24333;42.626;23.308;2022-11-10T16:01:22;93086.78;;;7.67;96.15
38558;BME280;24333;42.626;23.308;2022-11-10T16:03:48;93092.81;;;7.73;96.93
38558;BME280;24333;42.626;23.308;2022-11-10T16:06:14;93070.13;;;7.57;97.67
38558;BME280;24333;42.626;23.308;2022-11-10T16:08:40;93087.72;;;7.72;98.32
38558;BME280;24333;42.626;23.308;2022-11-10T16:11:19;93092.44;;;7.62;97.55
38558;BME280;24333;42.626;23.308;2022-11-10T16:13:47;93087.09;;;7.53;98.24
38558;BME280;24333;42.626;23.308;2022-11-10T16:16:14;93061.38;;;7.38;98.14
38558;BME280;24333;42.626;23.308;2022-11-10T16:21:24;93087.66;;;7.47;100.00
38558;BME280;24333;42.626;23.308;2022-11-10T16:23:51;93101.69;;;7.49;100.00
38558;BME280;24333;42.626;23.308;2022-11-10T16:26:41;93121.84;;;7.60;100.00
38558;BME280;24333;42.626;23.308;2022-11-10T16:29:11;93097.69;;;7.46;100.00
38558;BME280;24333;42.626;23.308;2022-11-10T16:31:38;93119.00;;;7.57;100.00
38558;BME280;24333;42.626;23.308;2022-11-10T16:34:04;93116.94;;;7.53;100.00
38558;BME280;24333;42.626;23.308;2022-11-10T17:13:39;93155.81;;;7.03;100.00
38558;BME280;24333;42.626;23.308;2022-11-10T17:16:31;93164.91;;;6.98;100.00
38558;BME280;24333;42.626;23.308;2022-11-10T17:18:59;93159.66;;;7.02;100.00
38558;BME280;24333;42.626;23.308;2022-11-10T17:21:27;93166.47;;;7.08;100.00
38558;BME280;24333;42.626;23.308;2022-11-10T17:23:53;93168.19;;;7.13;100.00
38558;BME280;24333;42.626;23.308;2022-11-10T17:30:12;93169.50;;;7.06;100.00
38558;BME280;24333;42.626;23.308;2022-11-10T17:32:38;93168.19;;;7.13;100.00
38558;BME280;24333;42.626;23.308;2022-11-10T17:35:04;93157.34;;;7.13;100.00
38558;BME280;24333;42.626;23.308;2022-11-10T17:37:30;93159.50;;;7.19;100.00
38558;BME280;24333;42.626;23.308;2022-11-10T17:39:55;93150.34;;;7.12;100.00
38558;BME280;24333;42.626;23.308;2022-11-10T17:42:22;93150.34;;;7.12;100.00
38558;BME280;24333;42.626;23.308;2022-11-10T17:44:47;93166.06;;;7.18;100.00
38558;BME280;24333;42.626;23.308;2022-11-10T17:47:12;93159.72;;;7.14;100.00
38558;BME280;24333;42.626;23.308;2022-11-10T17:49:38;93160.13;;;7.04;100.00
38558;BME280;24333;42.626;23.308;2022-11-10T17:52:03;93152.69;;;7.13;100.00
38558;BME280;24333;42.626;23.308;2022-11-10T17:54:29;93158.28;;;7.17;100.00
38558;BME280;24333;42.626;23.308;2022-11-10T17:56:54;93155.88;;;7.15;100.00
38558;BME280;24333;42.626;23.308;2022-11-10T17:59:20;93150.34;;;7.12;100.00
38558;BME280;24333;42.626;23.308;2022-11-10T18:01:45;93159.41;;;7.16;100.00
38558;BME280;24333;42.626;23.308;2022-11-10T18:04:11;93166.06;;;7.18;100.00
38558;BME280;24333;42.626;23.308;2022-11-10T18:06:40;93167.00;;;7.22;100.00
38558;BME280;24333;42.626;23.308;2022-11-10T18:09:05;93164.28;;;7.22;100.00
38558;BME280;24333;42.626;23.308;2022-11-10T18:11:31;93157.94;;;7.18;100.00
38558;BME280;24333;42.626;23.308;2022-11-10T18:13:56;93169.25;;;7.20;100.00
38558;BME280;24333;42.626;23.308;2022-11-10T18:16:40;93177.97;;;7.26;100.00
38558;BME280;24333;42.626;23.308;2022-11-10T18:19:07;93174.97;;;7.28;100.00
38558;BME280;24333;42.626;23.308;2022-11-10T18:21:32;93176.66;;;7.32;100.00
38558;BME280;24333;42.626;23.308;2022-11-10T18:23:58;93166.94;;;7.31;100.00
38558;BME280;24333;42.626;23.308;2022-11-10T18:30:00;93188.44;;;7.36;100.00
38558;BME280;24333;42.626;23.308;2022-11-10T18:32:26;93186.38;;;7.33;100.00
38558;BME280;24333;42.626;23.308;2022-11-10T18:34:51;93196.72;;;7.40;100.00
38558;BME280;24333;42.626;23.308;2022-11-10T18:37:17;93190.03;;;7.37;100.00
38558;BME280;24333;42.626;23.308;2022-11-10T18:39:43;93187.91;;;7.43;100.00
38558;BME280;24333;42.626;23.308;2022-11-10T18:42:09;93200.63;;;7.51;100.00
38558;BME280;24333;42.626;23.308;2022-11-10T18:52:22;93192.41;;;7.39;100.00
38558;BME280;24333;42.626;23.308;2022-11-10T18:54:47;93197.50;;;7.41;100.00
38558;BME280;24333;42.626;23.308;2022-11-10T18:57:13;93199.91;;;7.42;100.00
38558;BME280;24333;42.626;23.308;2022-11-10T19:06:39;93224.97;;;7.39;100.00
38558;BME280;24333;42.626;23.308;2022-11-10T19:09:05;93212.13;;;7.27;100.00
38558;BME280;24333;42.626;23.308;2022-11-10T19:11:33;93224.97;;;7.39;100.00
38558;BME280;24333;42.626;23.308;2022-11-10T19:13:59;93222.59;;;7.37;100.00
38558;BME280;24333;42.626;23.308;2022-11-10T19:16:26;93213.50;;;7.33;100.00
38558;BME280;24333;42.626;23.308;2022-11-10T19:18:51;93219.59;;;7.30;100.00
38558;BME280;24333;42.626;23.308;2022-11-10T19:21:19;93209.38;;;7.36;100.00
38558;BME280;24333;42.626;23.308;2022-11-10T19:23:46;93221.47;;;7.38;100.00
38558;BME280;24333;42.626;23.308;2022-11-10T19:26:16;93231.53;;;7.38;100.00
38558;BME280;24333;42.626;23.308;2022-11-10T19:28:44;93230.41;;;7.39;100.00
38558;BME280;24333;42.626;23.308;2022-11-10T20:47:16;93258.59;;;8.10;100.00
38558;BME280;24333;42.626;23.308;2022-11-10T20:49:42;93231.91;;;7.91;100.00
38558;BME280;24333;42.626;23.308;2022-11-10T20:57:18;93240.38;;;7.90;100.00
38558;BME280;24333;42.626;23.308;2022-11-10T21:06:10;93275.97;;;7.97;100.00
38558;BME280;24333;42.626;23.308;2022-11-10T21:08:39;93275.03;;;7.93;100.00
38558;BME280;24333;42.626;23.308;2022-11-10T21:11:05;93264.81;;;7.90;100.00
38558;BME280;24333;42.626;23.308;2022-11-10T21:13:34;93278.56;;;7.93;100.00
38558;BME280;24333;42.626;23.308;2022-11-10T21:16:03;93266.97;;;7.84;100.00
38558;BME280;24333;42.626;23.308;2022-11-10T21:19:10;93288.75;;;7.96;100.00
38558;BME280;24333;42.626;23.308;2022-11-10T21:21:38;93270.53;;;7.76;100.00
38558;BME280;24333;42.626;23.308;2022-11-10T21:24:09;93273.44;;;7.71;100.00
38558;BME280;24333;42.626;23.308;2022-11-10T21:26:35;93296.75;;;7.72;100.00
38558;BME280;24333;42.626;23.308;2022-11-10T21:36:09;93297.06;;;7.49;100.00
38558;BME280;24333;42.626;23.308;2022-11-10T21:38:57;93276.59;;;7.30;100.00
38558;BME280;24333;42.626;23.308;2022-11-10T21:41:24;93295.38;;;7.35;100.00
38558;BME280;24333;42.626;23.308;2022-11-10T21:44:01;93286.50;;;7.26;100.00
38558;BME280;24333;42.626;23.308;2022-11-10T21:46:26;93300.16;;;7.38;100.00
38558;BME280;24333;42.626;23.308;2022-11-10T21:52:03;93299.38;;;7.38;100.00
38558;BME280;24333;42.626;23.308;2022-11-10T21:54:28;93283.47;;;7.28;100.00
38558;BME280;24333;42.626;23.308;2022-11-10T21:56:55;93290.03;;;7.27;100.00
38558;BME280;24333;42.626;23.308;2022-11-10T22:03:17;93315.31;;;7.40;100.00
38558;BME280;24333;42.626;23.308;2022-11-10T22:06:03;93292.13;;;7.21;100.00
